Time;durP1;ratioP1;P1;durP2;ratioP2;P2;SDS_P1;SDS_P2;PMS_P1;PMS_P2;Temp;Humidity;BMP_temperature;BMP_pressure;BME280_temperature;BME280_humidity;BME280_pressure;Samples;Min_cycle;Max_cycle;Signal;HPM_P1;HPM_P2
2021/11/02 00:01:30;;;;;;;;;;;;;;;;;;;;;
2021/11/02 00:04:16;;;;;;;4.73;2.00;;;;;;;;;;5014067;28;25111;-73
2021/11/02 00:07:13;;;;;;;2.40;1.50;;;;;;;;;;5002370;28;25094;-74
2021/11/02 00:10:08;;;;;;;2.87;1.20;;;;;;;;;;5007916;28;25107;-73
2021/11/02 00:12:39;;;;;;;3.77;1.50;;;;;;;;;;5008815;28;25214;-73
2021/11/02 00:15:31;;;;;;;5.60;1.60;;;;;;;;;;5017425;28;20445;-73
2021/11/02 00:18:00;;;;;;;4.90;1.80;;;;;;;;;;5009361;28;25174;-73
2021/11/02 00:20:26;;;;;;;2.63;1.40;;;;;;;;;;5010755;28;23207;-73
2021/11/02 00:22:55;;;;;;;2.80;1.50;;;;;;;;;;5014692;28;25119;-73
2021/11/02 00:25:21;;;;;;;4.67;1.77;;;;;;;;;;5015879;28;25143;-74
2021/11/02 00:27:46;;;;;;;7.80;1.80;;;;;;;;;;5018779;28;25105;-74
2021/11/02 00:30:12;;;;;;;2.20;1.43;;;;;;;;;;5015683;28;25108;-73
2021/11/02 00:32:38;;;;;;;3.23;1.87;;;;;;;;;;5006881;28;25090;-74
2021/11/02 00:35:05;;;;;;;2.23;1.47;;;;;;;;;;5007124;28;25091;-75
2021/11/02 00:37:30;;;;;;;3.67;1.37;;;;;;;;;;5006578;28;25127;-74
2021/11/02 00:39:55;;;;;;;3.53;1.60;;;;;;;;;;5008522;28;25155;-74
2021/11/02 00:42:27;;;;;;;2.07;1.27;;;;;;;;;;5011829;28;25076;-73
2021/11/02 00:44:56;;;;;;;3.70;1.40;;;;;;;;;;5009613;28;25084;-73
2021/11/02 00:47:24;;;;;;;2.40;1.40;;;;;;;;;;5009239;28;25102;-73
2021/11/02 00:49:49;;;;;;;3.00;1.40;;;;;;;;;;5013750;28;25102;-73
2021/11/02 00:52:15;;;;;;;2.73;1.57;;;;;;;;;;5009993;28;25123;-73
2021/11/02 00:54:40;;;;;;;7.57;1.57;;;;;;;;;;5015281;28;25098;-75
2021/11/02 00:57:05;;;;;;;2.93;1.60;;;;;;;;;;5014574;28;25138;-73
2021/11/02 00:59:30;;;;;;;4.17;1.40;;;;;;;;;;5011449;28;25066;-73
2021/11/02 01:01:55;;;;;;;1.37;1.27;;;;;;;;;;5011665;28;25103;-73
2021/11/02 01:04:21;;;;;;;3.27;1.50;;;;;;;;;;5009003;28;25110;-75
2021/11/02 01:06:46;;;;;;;2.77;1.47;;;;;;;;;;5005738;28;25129;-74
2021/11/02 01:09:11;;;;;;;3.80;1.40;;;;;;;;;;5006941;28;20201;-74
2021/11/02 01:11:36;;;;;;;3.40;1.57;;;;;;;;;;5008484;28;20241;-73
2021/11/02 01:14:04;;;;;;;3.43;1.90;;;;;;;;;;5015576;28;25071;-74
2021/11/02 01:16:29;;;;;;;2.40;1.40;;;;;;;;;;5016448;28;25103;-74
2021/11/02 01:18:54;;;;;;;3.10;1.73;;;;;;;;;;5011714;28;25159;-73
2021/11/02 01:21:20;;;;;;;5.10;1.90;;;;;;;;;;5018725;28;20711;-73
2021/11/02 01:23:45;;;;;;;4.37;1.70;;;;;;;;;;5012848;28;25101;-74
2021/11/02 01:26:10;;;;;;;3.83;1.50;;;;;;;;;;5010086;28;25139;-73
2021/11/02 01:28:36;;;;;;;3.73;2.23;;;;;;;;;;5009342;28;25077;-73
2021/11/02 01:31:01;;;;;;;2.23;1.50;;;;;;;;;;5021015;28;25089;-73
2021/11/02 01:33:26;;;;;;;4.43;1.97;;;;;;;;;;5020447;28;25115;-73
2021/11/02 01:35:51;;;;;;;4.53;1.87;;;;;;;;;;5017179;28;20556;-73
2021/11/02 01:38:20;;;;;;;1.70;1.40;;;;;;;;;;5010809;28;20180;-73
2021/11/02 01:40:46;;;;;;;1.90;1.63;;;;;;;;;;5011264;28;20221;-74
2021/11/02 01:43:12;;;;;;;3.10;1.67;;;;;;;;;;5010596;28;20439;-74
2021/11/02 01:45:38;;;;;;;3.87;1.40;;;;;;;;;;5011074;28;20184;-74
2021/11/02 01:48:03;;;;;;;3.30;1.90;;;;;;;;;;5013996;28;20475;-74
2021/11/02 01:50:29;;;;;;;4.00;1.70;;;;;;;;;;5013204;28;20180;-73
2021/11/02 01:52:54;;;;;;;4.17;2.20;;;;;;;;;;5010004;28;20186;-73
2021/11/02 01:55:20;;;;;;;2.80;1.67;;;;;;;;;;5014272;28;20199;-73
2021/11/02 01:57:48;;;;;;;6.43;2.33;;;;;;;;;;5009441;28;20192;-73
2021/11/02 02:00:15;;;;;;;5.30;1.97;;;;;;;;;;5010322;28;20208;-73
2021/11/02 02:03:03;;;;;;;3.53;1.73;;;;;;;;;;5009714;28;20447;-74
2021/11/02 02:05:43;;;;;;;2.70;1.60;;;;;;;;;;5009150;28;20493;-73
2021/11/02 02:08:14;;;;;;;2.63;1.73;;;;;;;;;;5019328;28;20436;-73
2021/11/02 02:10:59;;;;;;;3.13;1.60;;;;;;;;;;5015501;28;20447;-72
2021/11/02 02:13:42;;;;;;;4.90;2.20;;;;;;;;;;5015231;28;20530;-72
2021/11/02 02:16:23;;;;;;;5.47;2.30;;;;;;;;;;5010336;28;20995;-73
2021/11/02 02:18:48;;;;;;;4.53;1.80;;;;;;;;;;5013281;28;20464;-73
2021/11/02 02:21:25;;;;;;;5.17;2.00;;;;;;;;;;5010903;28;20509;-72
2021/11/02 02:23:53;;;;;;;2.00;1.80;;;;;;;;;;5010323;28;20541;-72
2021/11/02 02:26:30;;;;;;;3.43;2.37;;;;;;;;;;5007669;28;20897;-73
2021/11/02 02:29:00;;;;;;;4.37;2.37;;;;;;;;;;5006261;28;20915;-72
2021/11/02 02:31:27;;;;;;;3.67;2.23;;;;;;;;;;5010124;28;20478;-72
2021/11/02 02:33:53;;;;;;;8.17;2.10;;;;;;;;;;5006636;28;20427;-73
2021/11/02 02:36:19;;;;;;;4.60;2.27;;;;;;;;;;5009076;28;20454;-73
2021/11/02 02:38:45;;;;;;;5.57;1.90;;;;;;;;;;5007666;28;20275;-73
2021/11/02 02:41:11;;;;;;;4.83;2.20;;;;;;;;;;5005086;28;22239;-73
2021/11/02 02:43:39;;;;;;;7.40;2.40;;;;;;;;;;5006688;28;20428;-73
2021/11/02 02:46:05;;;;;;;4.03;2.03;;;;;;;;;;5007836;28;20185;-73
2021/11/02 02:48:30;;;;;;;5.53;2.50;;;;;;;;;;5007596;28;21634;-73
2021/11/02 02:50:58;;;;;;;5.20;2.20;;;;;;;;;;5008758;28;20207;-73
2021/11/02 02:53:24;;;;;;;5.00;2.80;;;;;;;;;;5015347;28;20191;-73
2021/11/02 02:55:50;;;;;;;4.30;2.50;;;;;;;;;;5009347;28;20469;-73
2021/11/02 02:58:17;;;;;;;7.23;2.43;;;;;;;;;;5010735;28;20419;-73
2021/11/02 03:00:43;;;;;;;7.70;2.37;;;;;;;;;;5007318;28;20351;-73
2021/11/02 03:03:11;;;;;;;4.43;2.00;;;;;;;;;;5006495;28;20444;-73
2021/11/02 03:05:36;;;;;;;4.30;2.50;;;;;;;;;;5006160;28;20242;-73
2021/11/02 03:08:02;;;;;;;3.10;2.30;;;;;;;;;;5009509;28;20917;-73
2021/11/02 03:10:28;;;;;;;5.57;2.70;;;;;;;;;;5008420;28;20574;-73
2021/11/02 03:12:55;;;;;;;2.83;2.23;;;;;;;;;;5006862;28;20431;-73
2021/11/02 03:18:49;;;;;;;5.47;2.60;;;;;;;;;;5007494;28;22229;-73
2021/11/02 04:31:09;;;;;;;7.10;4.27;;;;;;;;;;5006268;28;20486;-73
2021/11/02 05:11:56;;;;;;;7.43;5.10;;;;;;;;;;5008197;28;20497;-74
2021/11/02 05:47:52;;;;;;;8.40;7.10;;;;;;;;;;5008579;28;20430;-73
2021/11/02 05:50:05;;;;;;;12.40;7.30;;;;;;;;;;5005585;28;20518;-73
2021/11/02 06:00:13;;;;;;;9.93;6.77;;;;;;;;;;5014174;28;20463;-73
2021/11/02 06:30:36;;;;;;;10.33;6.93;;;;;;;;;;5000706;28;20466;-73
2021/11/02 06:33:14;;;;;;;7.80;7.10;;;;;;;;;;5016492;28;20616;-73
2021/11/02 06:57:18;;;;;;;10.50;7.70;;;;;;;;;;5013041;28;20438;-74
2021/11/02 07:19:28;;;;;;;9.47;6.97;;;;;;;;;;5013660;28;20498;-74
2021/11/02 07:22:12;;;;;;;9.83;7.00;;;;;;;;;;5011713;28;20535;-73
2021/11/02 07:27:22;;;;;;;11.70;7.97;;;;;;;;;;5004917;28;20474;-75
2021/11/02 08:47:03;;;;;;;21.90;15.33;;;;;;;;;;5006013;28;20482;-75
2021/11/02 08:49:29;;;;;;;19.97;14.87;;;;;;;;;;5015917;28;20976;-76
2021/11/02 08:51:56;;;;;;;18.50;15.23;;;;;;;;;;5009681;28;20472;-75
2021/11/02 08:54:22;;;;;;;17.57;14.30;;;;;;;;;;5011882;28;20181;-74
2021/11/02 08:56:48;;;;;;;18.07;15.33;;;;;;;;;;5012539;28;21030;-74
2021/11/02 08:59:13;;;;;;;19.23;15.57;;;;;;;;;;5003115;28;20553;-74
2021/11/02 09:01:40;;;;;;;22.87;15.00;;;;;;;;;;5007023;28;20197;-75
2021/11/02 09:04:07;;;;;;;17.13;14.57;;;;;;;;;;5012151;28;20204;-74
2021/11/02 09:06:32;;;;;;;19.53;14.60;;;;;;;;;;5019576;28;20449;-75
2021/11/02 09:08:59;;;;;;;18.73;14.93;;;;;;;;;;5017438;28;20420;-75
2021/11/02 09:11:26;;;;;;;21.37;16.80;;;;;;;;;;5019906;28;20221;-76
2021/11/02 09:13:53;;;;;;;22.50;15.40;;;;;;;;;;5017042;28;20428;-76
2021/11/02 09:16:19;;;;;;;20.07;16.43;;;;;;;;;;5012243;28;20921;-74
2021/11/02 09:18:45;;;;;;;22.13;14.43;;;;;;;;;;5014067;28;20432;-74
2021/11/02 09:21:11;;;;;;;17.93;14.00;;;;;;;;;;5018176;28;20470;-75
2021/11/02 09:23:39;;;;;;;16.23;13.43;;;;;;;;;;5013592;28;20426;-74
2021/11/02 09:26:05;;;;;;;17.80;14.20;;;;;;;;;;5015504;28;20188;-74
2021/11/02 09:28:31;;;;;;;18.10;13.40;;;;;;;;;;5016971;28;20419;-75
2021/11/02 09:30:57;;;;;;;16.23;13.53;;;;;;;;;;5017882;28;20223;-73
2021/11/02 09:33:22;;;;;;;16.80;13.10;;;;;;;;;;5015739;28;20531;-75
2021/11/02 09:35:56;;;;;;;16.20;12.80;;;;;;;;;;5016663;28;20526;-75
2021/11/02 09:38:40;;;;;;;14.57;12.50;;;;;;;;;;5011101;28;20229;-74
2021/11/02 09:41:08;;;;;;;18.60;13.70;;;;;;;;;;5006973;28;20864;-73
2021/11/02 09:43:36;;;;;;;15.73;12.43;;;;;;;;;;5011700;28;20427;-74
2021/11/02 09:46:24;;;;;;;14.73;12.20;;;;;;;;;;5016437;28;20482;-74
2021/11/02 09:48:56;;;;;;;15.50;13.90;;;;;;;;;;5013801;28;20949;-75
2021/11/02 09:51:47;;;;;;;15.43;12.40;;;;;;;;;;5011576;28;20450;-75
2021/11/02 09:54:13;;;;;;;16.80;12.50;;;;;;;;;;5011595;28;20945;-74
2021/11/02 09:56:53;;;;;;;13.03;11.63;;;;;;;;;;5012535;28;20856;-74
2021/11/02 09:59:19;;;;;;;15.13;11.17;;;;;;;;;;5021281;28;20553;-74
2021/11/02 10:01:56;;;;;;;14.13;11.37;;;;;;;;;;5005949;28;20459;-74
2021/11/02 10:04:23;;;;;;;11.67;10.43;;;;;;;;;;5014818;28;20181;-74
2021/11/02 10:07:05;;;;;;;16.87;10.80;;;;;;;;;;5013176;28;20432;-74
2021/11/02 10:09:51;;;;;;;10.93;9.27;;;;;;;;;;5015331;28;20435;-74
2021/11/02 10:12:18;;;;;;;13.07;9.93;;;;;;;;;;5012362;28;20467;-74
2021/11/02 10:14:54;;;;;;;13.00;10.97;;;;;;;;;;5017040;28;20898;-74
2021/11/02 10:17:26;;;;;;;12.77;9.93;;;;;;;;;;5016182;28;20455;-75
2021/11/02 10:19:55;;;;;;;11.30;10.10;;;;;;;;;;5014718;28;20463;-74
2021/11/02 10:22:29;;;;;;;12.93;10.53;;;;;;;;;;5013302;28;20478;-75
2021/11/02 10:25:06;;;;;;;12.97;10.43;;;;;;;;;;5006624;28;20434;-73
2021/11/02 10:27:42;;;;;;;13.27;11.50;;;;;;;;;;5002122;28;20443;-74
2021/11/02 10:30:28;;;;;;;18.27;12.60;;;;;;;;;;5007434;28;20456;-74
2021/11/02 10:32:56;;;;;;;13.47;10.83;;;;;;;;;;5007676;28;20434;-74
2021/11/02 10:35:40;;;;;;;13.93;11.70;;;;;;;;;;5009776;28;20968;-75
2021/11/02 10:38:10;;;;;;;15.03;11.50;;;;;;;;;;5008051;28;20954;-75
2021/11/02 10:40:48;;;;;;;15.50;12.77;;;;;;;;;;5012221;28;20550;-74
2021/11/02 10:43:16;;;;;;;16.70;13.10;;;;;;;;;;5010171;28;20438;-74
2021/11/02 10:45:53;;;;;;;15.07;13.47;;;;;;;;;;5012079;28;21457;-74
2021/11/02 10:48:24;;;;;;;17.40;13.60;;;;;;;;;;5012449;28;20527;-75
2021/11/02 10:50:53;;;;;;;17.00;12.83;;;;;;;;;;5016823;28;20510;-74
2021/11/02 10:53:33;;;;;;;16.60;12.60;;;;;;;;;;5022829;28;20431;-75
2021/11/02 10:56:17;;;;;;;12.93;11.37;;;;;;;;;;5013402;28;20972;-74
2021/11/02 10:58:45;;;;;;;14.47;11.43;;;;;;;;;;5015678;28;20971;-74
2021/11/02 11:01:12;;;;;;;11.70;10.27;;;;;;;;;;5010119;28;20948;-74
2021/11/02 11:03:38;;;;;;;12.87;11.50;;;;;;;;;;5020677;28;20466;-74
2021/11/02 11:06:04;;;;;;;12.97;11.60;;;;;;;;;;5014856;28;20833;-75
2021/11/02 11:08:32;;;;;;;13.67;12.20;;;;;;;;;;5015229;28;20460;-75
2021/11/02 11:10:58;;;;;;;14.13;12.33;;;;;;;;;;5017102;28;20462;-74
2021/11/02 11:13:28;;;;;;;13.70;12.37;;;;;;;;;;5015385;28;21003;-74
2021/11/02 11:15:57;;;;;;;13.53;12.13;;;;;;;;;;5015534;28;20836;-75
2021/11/02 11:18:27;;;;;;;14.07;12.67;;;;;;;;;;5015687;28;20530;-74
2021/11/02 11:20:53;;;;;;;13.37;11.97;;;;;;;;;;5012645;28;20513;-74
2021/11/02 11:23:19;;;;;;;17.23;13.00;;;;;;;;;;5012892;28;20433;-74
2021/11/02 11:25:45;;;;;;;16.47;14.53;;;;;;;;;;5013592;28;20559;-74
2021/11/02 11:28:14;;;;;;;15.43;12.63;;;;;;;;;;5010877;28;20459;-75
2021/11/02 11:30:43;;;;;;;15.17;11.97;;;;;;;;;;5012569;28;20912;-73
2021/11/02 11:33:15;;;;;;;16.17;12.70;;;;;;;;;;5009137;28;20438;-74
2021/11/02 11:35:42;;;;;;;13.47;12.07;;;;;;;;;;5008095;28;20431;-74
2021/11/02 11:38:08;;;;;;;14.07;12.60;;;;;;;;;;5008904;28;20424;-74
2021/11/02 11:40:35;;;;;;;13.00;11.67;;;;;;;;;;5010376;28;20473;-73
2021/11/02 11:43:02;;;;;;;11.67;10.47;;;;;;;;;;5007131;28;20547;-74
2021/11/02 11:45:28;;;;;;;11.43;10.33;;;;;;;;;;5007241;28;20423;-75
2021/11/02 11:48:12;;;;;;;10.97;9.87;;;;;;;;;;5009399;28;20481;-73
2021/11/02 11:50:43;;;;;;;10.80;9.63;;;;;;;;;;5008695;28;20455;-74
2021/11/02 11:53:14;;;;;;;10.30;9.03;;;;;;;;;;4999467;28;20427;-75
2021/11/02 11:55:42;;;;;;;13.37;9.70;;;;;;;;;;4996445;28;20494;-74
2021/11/02 11:58:14;;;;;;;10.10;9.20;;;;;;;;;;5004880;28;20423;-75
2021/11/02 12:00:47;;;;;;;13.10;9.90;;;;;;;;;;5011709;28;20475;-75
2021/11/02 12:03:12;;;;;;;10.70;9.40;;;;;;;;;;5008474;28;20422;-76
2021/11/02 12:05:53;;;;;;;11.00;9.90;;;;;;;;;;5007445;28;20439;-74
2021/11/02 12:08:23;;;;;;;11.77;10.33;;;;;;;;;;5006486;28;20751;-74
2021/11/02 12:10:50;;;;;;;12.27;9.10;;;;;;;;;;5003762;28;20558;-73
2021/11/02 12:13:16;;;;;;;8.50;7.63;;;;;;;;;;5010864;28;20435;-75
2021/11/02 12:15:46;;;;;;;11.47;9.43;;;;;;;;;;5010108;28;20515;-74
2021/11/02 12:18:14;;;;;;;11.47;8.47;;;;;;;;;;5017881;28;20819;-74
2021/11/02 12:20:41;;;;;;;10.50;8.57;;;;;;;;;;5008506;28;20471;-75
2021/11/02 12:23:14;;;;;;;11.40;9.00;;;;;;;;;;5015643;28;20492;-74
2021/11/02 12:25:40;;;;;;;15.90;7.97;;;;;;;;;;5022244;28;20467;-75
2021/11/02 12:28:06;;;;;;;8.37;7.43;;;;;;;;;;5011084;28;21071;-75
2021/11/02 12:30:32;;;;;;;8.13;7.33;;;;;;;;;;5010159;28;20463;-74
2021/11/02 12:32:57;;;;;;;6.77;5.70;;;;;;;;;;5013604;28;20702;-74
2021/11/02 12:35:32;;;;;;;6.00;5.40;;;;;;;;;;5012830;28;20218;-75
2021/11/02 12:37:59;;;;;;;6.93;5.80;;;;;;;;;;5018354;28;20270;-74
2021/11/02 12:40:36;;;;;;;6.30;5.30;;;;;;;;;;5015096;28;20467;-74
2021/11/02 12:43:01;;;;;;;5.53;5.03;;;;;;;;;;5016882;28;20426;-74
2021/11/02 12:45:27;;;;;;;6.07;5.27;;;;;;;;;;5017870;28;20486;-74
2021/11/02 12:47:59;;;;;;;7.23;5.00;;;;;;;;;;5015978;28;20185;-74
2021/11/02 12:50:27;;;;;;;6.30;4.80;;;;;;;;;;5014706;28;20424;-75
2021/11/02 12:52:52;;;;;;;8.33;4.87;;;;;;;;;;5011308;28;20457;-74
2021/11/02 12:55:24;;;;;;;8.73;5.23;;;;;;;;;;5008868;28;21110;-73
2021/11/02 12:57:53;;;;;;;8.97;4.33;;;;;;;;;;5012461;28;20201;-74
2021/11/02 13:00:28;;;;;;;6.90;4.43;;;;;;;;;;5008213;28;20467;-73
2021/11/02 13:03:03;;;;;;;6.40;3.63;;;;;;;;;;5007663;28;20461;-73
2021/11/02 13:05:30;;;;;;;6.73;4.83;;;;;;;;;;5014412;28;20510;-74
2021/11/02 13:08:07;;;;;;;6.20;4.37;;;;;;;;;;5011847;28;20591;-74
2021/11/02 13:10:33;;;;;;;8.63;4.50;;;;;;;;;;5010316;28;20450;-73
2021/11/02 13:13:06;;;;;;;6.63;3.47;;;;;;;;;;5013150;28;20438;-76
2021/11/02 13:15:32;;;;;;;13.97;3.47;;;;;;;;;;5014632;28;20180;-74
2021/11/02 13:18:00;;;;;;;5.67;3.80;;;;;;;;;;5034906;28;20435;-75
2021/11/02 13:20:28;;;;;;;5.77;3.53;;;;;;;;;;5017135;28;20971;-74
2021/11/02 13:22:54;;;;;;;4.20;3.80;;;;;;;;;;5016314;28;20423;-74
2021/11/02 13:25:23;;;;;;;9.40;3.90;;;;;;;;;;5016788;28;20489;-75
2021/11/02 13:27:51;;;;;;;4.93;3.87;;;;;;;;;;5014355;28;20294;-74
2021/11/02 13:30:35;;;;;;;5.63;3.77;;;;;;;;;;5019439;28;20508;-74
2021/11/02 13:33:05;;;;;;;5.60;3.40;;;;;;;;;;5016349;28;20432;-74
2021/11/02 13:35:40;;;;;;;4.37;3.27;;;;;;;;;;5017305;28;20455;-74
2021/11/02 13:38:24;;;;;;;5.47;4.00;;;;;;;;;;5015188;28;20921;-75
2021/11/02 13:40:50;;;;;;;5.90;4.43;;;;;;;;;;5020276;28;20463;-75
2021/11/02 13:43:26;;;;;;;5.30;4.43;;;;;;;;;;5015216;28;20439;-76
2021/11/02 13:45:52;;;;;;;7.13;4.30;;;;;;;;;;5019813;28;20434;-75
2021/11/02 13:48:20;;;;;;;4.10;3.70;;;;;;;;;;5019720;28;20431;-74
2021/11/02 13:50:45;;;;;;;5.17;4.10;;;;;;;;;;5018334;28;20471;-75
2021/11/02 13:53:11;;;;;;;7.60;4.53;;;;;;;;;;5016273;28;20430;-74
2021/11/02 13:55:37;;;;;;;5.03;4.13;;;;;;;;;;5017210;28;20193;-74
2021/11/02 13:58:02;;;;;;;5.70;3.90;;;;;;;;;;5017751;28;20443;-75
2021/11/02 14:00:28;;;;;;;5.63;4.30;;;;;;;;;;5017140;28;20211;-75
2021/11/02 14:02:56;;;;;;;7.00;4.20;;;;;;;;;;5016744;28;20187;-75
2021/11/02 14:05:21;;;;;;;5.47;4.40;;;;;;;;;;5020369;28;20894;-74
2021/11/02 14:07:46;;;;;;;5.90;3.50;;;;;;;;;;5016048;28;20431;-74
2021/11/02 14:10:12;;;;;;;8.27;4.40;;;;;;;;;;5019086;28;20192;-75
2021/11/02 14:12:41;;;;;;;4.27;3.43;;;;;;;;;;5017321;28;20185;-75
2021/11/02 14:15:09;;;;;;;6.87;3.70;;;;;;;;;;5015232;28;20192;-75
2021/11/02 14:17:34;;;;;;;4.60;3.67;;;;;;;;;;5016824;28;20428;-76
2021/11/02 14:19:59;;;;;;;4.90;3.37;;;;;;;;;;5012463;28;20472;-75
2021/11/02 14:22:41;;;;;;;5.63;3.93;;;;;;;;;;5010929;28;20197;-75
2021/11/02 14:25:11;;;;;;;4.23;3.60;;;;;;;;;;5015634;28;20622;-74
2021/11/02 14:27:43;;;;;;;6.60;3.67;;;;;;;;;;5011729;28;20435;-76
2021/11/02 14:30:20;;;;;;;3.87;3.00;;;;;;;;;;5017494;28;20542;-73
2021/11/02 14:32:46;;;;;;;4.30;2.80;;;;;;;;;;5019056;28;20434;-76
2021/11/02 14:35:12;;;;;;;3.50;2.30;;;;;;;;;;5016699;28;20982;-76
2021/11/02 14:37:47;;;;;;;3.43;2.27;;;;;;;;;;5018290;28;20434;-74
2021/11/02 14:40:25;;;;;;;8.10;3.10;;;;;;;;;;5013551;28;24979;-74
2021/11/02 14:42:50;;;;;;;11.10;2.90;;;;;;;;;;5008411;28;20434;-75
2021/11/02 14:45:17;;;;;;;5.80;2.80;;;;;;;;;;5012422;28;20431;-75
2021/11/02 14:47:42;;;;;;;3.77;2.67;;;;;;;;;;5007577;28;20180;-74
2021/11/02 14:50:26;;;;;;;4.17;2.50;;;;;;;;;;5010483;28;20451;-74
2021/11/02 14:52:51;;;;;;;5.37;3.17;;;;;;;;;;5014998;28;20192;-74
2021/11/02 14:55:37;;;;;;;2.67;2.10;;;;;;;;;;5008571;28;20439;-74
2021/11/02 14:58:02;;;;;;;5.57;1.93;;;;;;;;;;5004651;28;20702;-74
2021/11/02 15:00:38;;;;;;;3.13;1.97;;;;;;;;;;5008790;28;20587;-73
2021/11/02 15:03:14;;;;;;;2.90;2.10;;;;;;;;;;5008996;28;20678;-74
2021/11/02 15:05:39;;;;;;;2.10;1.90;;;;;;;;;;5006863;28;20423;-73
2021/11/02 15:08:05;;;;;;;2.20;2.00;;;;;;;;;;5006115;28;20449;-74
2021/11/02 15:10:31;;;;;;;2.10;1.90;;;;;;;;;;5003464;28;20214;-74
2021/11/02 15:12:56;;;;;;;5.73;2.57;;;;;;;;;;5007664;28;20437;-74
2021/11/02 15:15:22;;;;;;;3.17;1.97;;;;;;;;;;5005741;28;20909;-75
2021/11/02 15:17:53;;;;;;;2.63;1.67;;;;;;;;;;5013713;28;20188;-74
2021/11/02 15:20:22;;;;;;;4.53;1.60;;;;;;;;;;5013499;28;20478;-73
2021/11/02 15:22:47;;;;;;;1.90;1.60;;;;;;;;;;5005660;28;21304;-74
2021/11/02 15:25:14;;;;;;;2.70;1.60;;;;;;;;;;5021575;28;20430;-73
2021/11/02 15:27:40;;;;;;;3.23;1.97;;;;;;;;;;5014489;28;20353;-74
2021/11/02 15:30:05;;;;;;;3.13;2.10;;;;;;;;;;5003244;28;20485;-74
2021/11/02 15:32:38;;;;;;;2.70;1.60;;;;;;;;;;5003760;28;20454;-75
2021/11/02 15:35:05;;;;;;;3.80;1.90;;;;;;;;;;5006718;28;20576;-74
2021/11/02 15:37:34;;;;;;;1.53;1.43;;;;;;;;;;5005675;28;20447;-74
2021/11/02 15:40:02;;;;;;;2.30;1.60;;;;;;;;;;5008597;28;21033;-73
2021/11/02 15:42:53;;;;;;;5.63;1.80;;;;;;;;;;5005883;28;20451;-75
2021/11/02 15:45:38;;;;;;;2.20;2.00;;;;;;;;;;5004545;28;20436;-75
2021/11/02 15:48:08;;;;;;;2.20;2.00;;;;;;;;;;5005681;28;20419;-75
2021/11/02 15:50:34;;;;;;;2.77;2.13;;;;;;;;;;5012769;28;20458;-74
2021/11/02 15:53:01;;;;;;;2.47;2.07;;;;;;;;;;5012291;28;20435;-75
2021/11/02 15:55:27;;;;;;;4.13;2.03;;;;;;;;;;5008027;28;20473;-75
2021/11/02 15:57:56;;;;;;;3.23;2.23;;;;;;;;;;5006071;28;20474;-75
2021/11/02 16:00:26;;;;;;;5.07;2.30;;;;;;;;;;5006131;28;20452;-74
2021/11/02 16:02:51;;;;;;;2.83;2.37;;;;;;;;;;5006089;28;20553;-76
2021/11/02 16:05:18;;;;;;;2.83;1.73;;;;;;;;;;5011377;28;20548;-75
2021/11/02 16:07:44;;;;;;;4.07;2.00;;;;;;;;;;5010188;28;20196;-77
2021/11/02 16:10:09;;;;;;;3.10;2.30;;;;;;;;;;5013050;28;20439;-76
2021/11/02 16:12:37;;;;;;;3.80;2.00;;;;;;;;;;5009026;28;20553;-75
2021/11/02 16:15:05;;;;;;;7.57;2.20;;;;;;;;;;5006491;28;20328;-76
2021/11/02 16:17:36;;;;;;;4.23;2.10;;;;;;;;;;5015962;28;20443;-76
2021/11/02 16:20:02;;;;;;;3.73;2.20;;;;;;;;;;5016157;28;20461;-75
2021/11/02 16:22:27;;;;;;;2.60;1.90;;;;;;;;;;5010861;28;20458;-75
2021/11/02 16:25:11;;;;;;;3.10;2.50;;;;;;;;;;5007201;28;20177;-76
2021/11/02 16:27:37;;;;;;;4.20;2.10;;;;;;;;;;5006879;28;20212;-75
2021/11/02 16:30:16;;;;;;;3.20;2.30;;;;;;;;;;5007456;28;20527;-75
2021/11/02 16:32:44;;;;;;;3.47;2.30;;;;;;;;;;5007536;28;20455;-75
2021/11/02 16:35:10;;;;;;;3.97;2.30;;;;;;;;;;5010127;28;20446;-77
2021/11/02 16:37:39;;;;;;;4.00;1.93;;;;;;;;;;5012083;28;20435;-75
2021/11/02 16:40:33;;;;;;;3.17;2.20;;;;;;;;;;5012240;28;20912;-75
2021/11/02 16:43:02;;;;;;;2.63;2.30;;;;;;;;;;4999978;28;20436;-75
2021/11/02 16:45:35;;;;;;;3.00;1.90;;;;;;;;;;5012997;28;20431;-75
2021/11/02 16:48:04;;;;;;;6.57;2.27;;;;;;;;;;5016182;28;20427;-78
2021/11/02 16:50:37;;;;;;;3.97;2.20;;;;;;;;;;5018364;28;20436;-76
2021/11/02 16:53:08;;;;;;;6.60;2.80;;;;;;;;;;5019460;28;20427;-77
2021/11/02 16:55:35;;;;;;;4.63;2.57;;;;;;;;;;5013446;28;20576;-75
2021/11/02 16:58:21;;;;;;;3.93;2.77;;;;;;;;;;5006378;28;20438;-73
2021/11/02 17:00:47;;;;;;;6.50;3.40;;;;;;;;;;5006895;28;20482;-75
2021/11/02 17:03:19;;;;;;;5.00;2.80;;;;;;;;;;5011555;28;20436;-76
2021/11/02 17:05:46;;;;;;;4.30;2.50;;;;;;;;;;5009319;28;20539;-74
2021/11/02 17:08:13;;;;;;;3.07;2.50;;;;;;;;;;5010109;28;20455;-76
2021/11/02 17:10:39;;;;;;;4.17;2.87;;;;;;;;;;5007976;28;20472;-75
2021/11/02 17:13:20;;;;;;;3.70;2.87;;;;;;;;;;5005066;28;20502;-74
2021/11/02 17:15:45;;;;;;;2.50;2.20;;;;;;;;;;5002653;28;20432;-74
2021/11/02 17:18:15;;;;;;;4.27;2.83;;;;;;;;;;5010433;28;20478;-74
2021/11/02 17:20:40;;;;;;;3.00;2.80;;;;;;;;;;5006519;28;20374;-75
2021/11/02 17:23:05;;;;;;;4.47;2.97;;;;;;;;;;5015375;28;20538;-74
2021/11/02 17:25:31;;;;;;;4.17;3.07;;;;;;;;;;5019589;28;20231;-75
2021/11/02 17:27:56;;;;;;;5.10;2.73;;;;;;;;;;5018095;28;20178;-75
2021/11/02 17:30:25;;;;;;;4.23;2.80;;;;;;;;;;5007683;28;20203;-75
2021/11/02 17:32:52;;;;;;;7.50;2.73;;;;;;;;;;5020715;28;20189;-75
2021/11/02 17:35:18;;;;;;;3.93;2.87;;;;;;;;;;5017098;28;20443;-74
2021/11/02 17:37:47;;;;;;;3.00;2.80;;;;;;;;;;5020044;28;20435;-76
2021/11/02 17:40:14;;;;;;;7.17;3.30;;;;;;;;;;5014096;28;20288;-75
2021/11/02 17:42:41;;;;;;;4.90;2.70;;;;;;;;;;5014365;28;20435;-75
2021/11/02 17:45:07;;;;;;;9.33;3.37;;;;;;;;;;5010655;28;20917;-75
2021/11/02 17:47:32;;;;;;;4.57;3.10;;;;;;;;;;5012510;28;20443;-75
2021/11/02 17:49:57;;;;;;;3.57;3.27;;;;;;;;;;5013222;28;20640;-75
2021/11/02 17:52:23;;;;;;;8.80;4.33;;;;;;;;;;5009337;28;20290;-76
2021/11/02 17:54:48;;;;;;;5.00;4.47;;;;;;;;;;5010931;28;20196;-75
2021/11/02 17:57:14;;;;;;;9.97;4.90;;;;;;;;;;5017372;28;20181;-77
2021/11/02 17:59:40;;;;;;;5.73;4.30;;;;;;;;;;5013596;28;20205;-79
2021/11/02 18:02:05;;;;;;;5.03;4.63;;;;;;;;;;5014527;28;20460;-79
2021/11/02 18:04:31;;;;;;;6.27;5.53;;;;;;;;;;5007823;28;20243;-75
2021/11/02 18:06:57;;;;;;;9.40;5.63;;;;;;;;;;5011888;28;20661;-75
2021/11/02 18:09:22;;;;;;;6.50;5.50;;;;;;;;;;5010580;28;20436;-75
2021/11/02 18:11:48;;;;;;;8.23;6.17;;;;;;;;;;5011018;28;20196;-76
2021/11/02 18:14:13;;;;;;;7.23;6.33;;;;;;;;;;5011697;28;20177;-76
2021/11/02 18:16:38;;;;;;;9.27;5.80;;;;;;;;;;5015812;28;20188;-77
2021/11/02 18:19:04;;;;;;;7.07;5.80;;;;;;;;;;5012512;28;20669;-77
2021/11/02 18:21:30;;;;;;;6.90;5.87;;;;;;;;;;5011737;28;20221;-75
2021/11/02 18:23:55;;;;;;;9.23;6.50;;;;;;;;;;5017460;28;20432;-75
2021/11/02 18:26:22;;;;;;;6.57;5.87;;;;;;;;;;5017469;28;20209;-75
2021/11/02 18:28:49;;;;;;;6.17;5.67;;;;;;;;;;5018878;28;20242;-75
2021/11/02 18:31:14;;;;;;;7.33;4.83;;;;;;;;;;5008700;28;20582;-74
2021/11/02 18:33:40;;;;;;;6.40;4.20;;;;;;;;;;5009701;28;20533;-76
2021/11/02 18:36:05;;;;;;;4.53;4.13;;;;;;;;;;5013674;28;20189;-74
2021/11/02 18:38:31;;;;;;;6.40;4.93;;;;;;;;;;5008189;28;20193;-74
2021/11/02 18:40:57;;;;;;;4.87;4.47;;;;;;;;;;5006309;28;20678;-74
2021/11/02 18:43:24;;;;;;;4.30;3.90;;;;;;;;;;5008483;28;20526;-74
2021/11/02 18:45:50;;;;;;;5.97;4.83;;;;;;;;;;5006586;28;20180;-74
2021/11/02 18:48:15;;;;;;;5.17;4.67;;;;;;;;;;5003503;28;20489;-74
2021/11/02 18:50:41;;;;;;;5.60;4.97;;;;;;;;;;5007302;28;20432;-75
2021/11/02 18:53:06;;;;;;;8.40;4.37;;;;;;;;;;5012368;28;20173;-74
2021/11/02 18:55:31;;;;;;;4.77;4.07;;;;;;;;;;5020966;28;20244;-76
2021/11/02 18:57:56;;;;;;;6.17;4.37;;;;;;;;;;5011933;28;20239;-75
2021/11/02 19:00:22;;;;;;;4.63;4.23;;;;;;;;;;5013140;28;20236;-75
2021/11/02 19:02:47;;;;;;;4.60;4.13;;;;;;;;;;5006908;28;20195;-75
2021/11/02 19:05:13;;;;;;;5.07;4.57;;;;;;;;;;5009988;28;20185;-75
2021/11/02 19:07:39;;;;;;;4.70;4.03;;;;;;;;;;5009354;28;20192;-75
2021/11/02 19:10:04;;;;;;;6.33;4.53;;;;;;;;;;5016417;28;20273;-75
2021/11/02 19:12:30;;;;;;;6.97;4.40;;;;;;;;;;5012955;28;20211;-75
2021/11/02 19:14:56;;;;;;;6.40;4.50;;;;;;;;;;5015194;28;20251;-75
2021/11/02 19:17:21;;;;;;;4.23;3.83;;;;;;;;;;5013490;28;21005;-75
2021/11/02 19:19:46;;;;;;;4.90;4.40;;;;;;;;;;5015247;28;20202;-76
2021/11/02 19:22:11;;;;;;;3.97;3.67;;;;;;;;;;5017401;28;20705;-74
2021/11/02 19:24:37;;;;;;;5.70;4.43;;;;;;;;;;5012923;28;20188;-75
2021/11/02 19:27:02;;;;;;;5.90;4.90;;;;;;;;;;5012235;28;20284;-74
2021/11/02 19:29:27;;;;;;;7.37;5.30;;;;;;;;;;5010099;28;20654;-73
2021/11/02 19:31:52;;;;;;;6.23;5.13;;;;;;;;;;5011206;28;20209;-75
2021/11/02 19:34:18;;;;;;;6.00;5.20;;;;;;;;;;5009543;28;20275;-75
2021/11/02 19:36:44;;;;;;;8.80;4.90;;;;;;;;;;5006823;28;20181;-74
2021/11/02 19:39:10;;;;;;;3.93;3.53;;;;;;;;;;5009543;28;20183;-74
2021/11/02 19:41:35;;;;;;;4.77;4.00;;;;;;;;;;5010175;28;20475;-75
2021/11/02 19:44:01;;;;;;;4.20;3.87;;;;;;;;;;5009103;28;20501;-76
2021/11/02 19:46:26;;;;;;;5.23;3.20;;;;;;;;;;5006311;28;20605;-75
2021/11/02 19:48:52;;;;;;;3.03;2.83;;;;;;;;;;5011203;28;20172;-76
2021/11/02 19:51:17;;;;;;;2.83;2.63;;;;;;;;;;5009613;28;20228;-75